createdAt,value
2018-12-01T00:02:44.187Z,36.30
2018-12-01T00:05:46.889Z,36.93
2018-12-01T00:08:49.476Z,30.17
2018-12-01T00:11:52.639Z,39.30
2018-12-01T00:14:55.390Z,40.30
2018-12-01T00:17:58.115Z,38.83
2018-12-01T00:21:00.798Z,40.83
2018-12-01T00:24:03.917Z,40.80
2018-12-01T00:27:06.559Z,41.67
2018-12-01T00:30:16.921Z,41.63
2018-12-01T00:33:19.549Z,43.30
2018-12-01T00:36:22.180Z,43.07
2018-12-01T00:39:25.092Z,42.77
2018-12-01T00:42:27.831Z,42.50
2018-12-01T00:45:30.502Z,43.03
2018-12-01T00:48:33.250Z,44.03
2018-12-01T00:51:35.930Z,43.73
2018-12-01T00:54:38.989Z,43.70
2018-12-01T00:57:41.729Z,43.77
2018-12-01T01:00:44.769Z,44.10
2018-12-01T01:03:47.417Z,45.53
2018-12-01T01:06:50.147Z,43.07
2018-12-01T01:09:52.772Z,40.80
2018-12-01T01:12:55.426Z,42.10
2018-12-01T01:15:58.197Z,42.47
2018-12-01T01:19:00.772Z,40.13
2018-12-01T01:22:03.567Z,39.10
2018-12-01T01:25:07.570Z,36.67
2018-12-01T01:28:10.218Z,36.63
2018-12-01T01:31:12.853Z,38.07
2018-12-01T01:34:15.453Z,35.53
2018-12-01T01:40:27.240Z,37.07
2018-12-01T01:43:30.361Z,38.77
2018-12-01T01:46:33.180Z,39.20
2018-12-01T01:49:35.752Z,41.77
2018-12-01T01:52:38.415Z,37.33
2018-12-01T01:55:41.086Z,36.00
2018-12-01T01:58:43.762Z,40.00
2018-12-01T02:05:22.344Z,39.37
2018-12-01T02:08:26.300Z,36.73
2018-12-01T02:11:28.965Z,36.83
2018-12-01T02:14:31.690Z,37.93
2018-12-01T02:17:36.233Z,37.07
2018-12-01T02:20:41.045Z,36.17
2018-12-01T02:23:43.724Z,34.83
2018-12-01T02:26:46.362Z,35.33
2018-12-01T02:29:49.046Z,34.77
2018-12-01T02:32:52.288Z,34.87
2018-12-01T02:35:54.968Z,35.63
2018-12-01T02:38:57.647Z,32.53
2018-12-01T02:42:02.809Z,31.53
2018-12-01T02:45:16.815Z,34.03
2018-12-01T02:48:21.993Z,31.73
2018-12-01T02:51:26.000Z,33.30
2018-12-01T02:54:29.837Z,34.20
2018-12-01T02:57:33.550Z,31.93
2018-12-01T03:00:38.455Z,33.00
2018-12-01T03:03:43.219Z,32.07
2018-12-01T03:06:47.914Z,32.53
2018-12-01T03:09:50.475Z,32.10
2018-12-01T03:12:53.567Z,32.20
2018-12-01T03:15:56.174Z,30.93
2018-12-01T03:18:58.938Z,30.77
2018-12-01T03:22:04.489Z,32.13
2018-12-01T03:25:08.588Z,28.30
2018-12-01T03:28:11.211Z,29.60
2018-12-01T03:31:16.114Z,27.63
2018-12-01T03:34:22.044Z,27.20
2018-12-01T03:37:26.785Z,26.97
2018-12-01T03:40:34.073Z,28.10
2018-12-01T03:43:36.845Z,27.37
2018-12-01T03:46:39.533Z,27.90
2018-12-01T03:49:43.101Z,28.20
2018-12-01T03:52:45.749Z,28.83
2018-12-01T03:55:49.425Z,29.77
2018-12-01T03:58:52.148Z,28.73
2018-12-01T04:01:54.799Z,28.37
2018-12-01T04:04:57.454Z,26.63
2018-12-01T04:08:00.226Z,26.93
2018-12-01T04:11:03.153Z,26.83
2018-12-01T04:14:05.914Z,26.27
2018-12-01T04:17:08.562Z,24.27
2018-12-01T04:20:11.277Z,26.67
2018-12-01T04:23:13.870Z,26.33
2018-12-01T04:26:17.099Z,24.20
2018-12-01T04:29:19.786Z,24.80
2018-12-01T04:32:23.433Z,26.37
2018-12-01T04:35:26.393Z,24.63
2018-12-01T04:38:29.046Z,25.93
2018-12-01T04:41:31.718Z,24.43
2018-12-01T04:44:34.385Z,26.47
2018-12-01T04:47:37.070Z,26.23
2018-12-01T04:50:39.829Z,28.87
2018-12-01T04:53:42.532Z,27.07
2018-12-01T04:56:45.195Z,26.07
2018-12-01T04:59:47.928Z,27.13
2018-12-01T05:02:50.570Z,25.97
2018-12-01T05:05:53.217Z,25.40
2018-12-01T05:08:56.112Z,26.13
2018-12-01T05:11:58.853Z,23.90
2018-12-01T05:15:04.425Z,22.77
2018-12-01T05:18:08.840Z,24.47
2018-12-01T05:21:13.388Z,21.70
2018-12-01T05:24:16.079Z,25.30
2018-12-01T05:27:19.371Z,23.73
2018-12-01T05:30:22.065Z,23.70
2018-12-01T05:33:27.725Z,26.93
2018-12-01T05:36:30.333Z,24.40
2018-12-01T05:39:33.200Z,28.83
2018-12-01T05:42:35.933Z,27.73
2018-12-01T05:45:39.505Z,26.83
2018-12-01T05:48:42.182Z,25.87
2018-12-01T05:51:46.355Z,28.73
2018-12-01T05:54:49.589Z,28.63
2018-12-01T05:57:53.134Z,29.47
2018-12-01T06:00:56.223Z,30.43
2018-12-01T06:03:59.124Z,27.33
2018-12-01T06:10:30.642Z,27.83
2018-12-01T06:13:34.056Z,25.17
2018-12-01T06:16:37.315Z,25.23
2018-12-01T06:19:39.952Z,25.33
2018-12-01T06:22:43.215Z,24.23
2018-12-01T06:25:45.882Z,25.43
2018-12-01T06:28:49.283Z,23.20
2018-12-01T06:31:52.028Z,24.60
2018-12-01T06:34:55.408Z,24.37
2018-12-01T06:37:58.010Z,23.70
2018-12-01T06:41:01.678Z,21.90
2018-12-01T06:44:09.526Z,22.43
2018-12-01T06:47:14.179Z,24.20
2018-12-01T06:50:21.296Z,24.03
2018-12-01T06:53:23.944Z,22.10
2018-12-01T06:56:26.495Z,22.33
2018-12-01T06:59:29.166Z,24.17
2018-12-01T07:02:31.753Z,23.43
2018-12-01T07:05:34.497Z,23.23
2018-12-01T07:08:37.174Z,21.60
2018-12-01T07:11:39.963Z,21.87
2018-12-01T07:14:42.559Z,21.60
2018-12-01T07:17:45.270Z,18.60
2018-12-01T07:20:47.959Z,18.47
2018-12-01T07:23:50.589Z,18.60
2018-12-01T07:26:53.180Z,16.97
2018-12-01T07:30:06.840Z,17.97
2018-12-01T07:33:10.636Z,16.83
2018-12-01T07:36:13.424Z,13.47
2018-12-01T07:39:16.150Z,15.43
2018-12-01T07:42:19.109Z,12.77
2018-12-01T07:45:21.759Z,12.20
2018-12-01T07:48:24.940Z,11.67
2018-12-01T07:51:27.628Z,11.23
2018-12-01T07:54:30.241Z,9.40
2018-12-01T07:57:34.015Z,11.03
2018-12-01T08:00:37.858Z,9.67
2018-12-01T08:03:41.795Z,9.43
2018-12-01T08:06:45.610Z,9.70
2018-12-01T08:09:49.485Z,8.70
2018-12-01T08:12:53.222Z,7.70
2018-12-01T08:15:56.589Z,8.67
2018-12-01T08:19:00.459Z,7.47
